Pagrindinis puslapis
METAR-TAF:

METAR-TAF

Oro uostai :

Padangas, Indonezija

platuma: 00-47-12S, ilguma: 100-16-50E, Aukštis: 5 m

METAR: trūkstamas

Laikas: 03:44 (20:44 UTC)

Prognozė

Ataskaita buvo paskelbta 3 valandos ir 44 minutes, ne 17:00 UTC
Prognozė galioja nuo 17 metu 18 UTC su 18 metu 18 UTC
Vėjas 2 kt iš Šiaurės/Šiaurės Rytų
Matomumas 10 km arba daugiau
Mažai debesys ne aukštis 2000 ft
Tapsmas
nuo 18 metu 01 UTC su 18 metu 03 UTC
Vėjas 5 kt iš Pietų/Pietryčių

TAF: WIEE 171700Z 1718/1818 02002KT 9999 FEW020 BECMG 1801/1803 15005KT

Orai ataskaitas ir orų prognozės (METAR, TAF).

turimą stotys yra geltonos ir raudonos taškus žemėlapyje.

Perkelti pele per norėdami pamatyti stoties vardą.

Tada spustelėkite, norėdami matyti oro stebėjimo ir prognozės.

Norėdami pakeisti žemėlapį: spustelėkite ant žalios mygtukų su juodo kryžiaus žemyn,; žalią mygtuką su brūkšneliu, jei norite nutolinti; arba žalių rodyklių gretimoms žemėlapius.


METAR-TAF: